Time;durP1;ratioP1;P1;durP2;ratioP2;P2;SDS_P1;SDS_P2;PMS_P1;PMS_P2;Temp;Humidity;BMP_temperature;BMP_pressure;BME280_temperature;BME280_humidity;BME280_pressure;Samples;Min_cycle;Max_cycle;Signal;HPM_P1;HPM_P2
2023/05/17 00:01:21;;;;;;;;;;;9.50;99.90;;;;;;5131256;28;19930;-68
2023/05/17 00:03:46;;;;;;;;;;;9.50;99.90;;;;;;5130720;28;19930;-69
2023/05/17 00:06:12;;;;;;;;;;;9.60;99.90;;;;;;5114112;28;20356;-68
2023/05/17 00:08:38;;;;;;;;;;;9.60;99.90;;;;;;5132566;28;19923;-68
2023/05/17 00:11:03;;;;;;;;;;;9.60;99.90;;;;;;5130979;28;20018;-69
2023/05/17 00:13:29;;;;;;;;;;;9.60;99.90;;;;;;5114153;28;19977;-68
2023/05/17 00:15:54;;;;;;;;;;;9.60;99.90;;;;;;5131060;28;20376;-69
2023/05/17 00:18:20;;;;;;;;;;;9.60;99.90;;;;;;5097421;28;19923;-68
2023/05/17 00:20:46;;;;;;;;;;;9.60;99.90;;;;;;5130860;28;20391;-69
2023/05/17 00:23:11;;;;;;;;;;;9.60;99.90;;;;;;5165810;27;19924;-68
2023/05/17 00:25:37;;;;;;;;;;;9.50;99.90;;;;;;5130230;28;19923;-69
2023/05/17 00:28:02;;;;;;;;;;;9.50;99.90;;;;;;5131122;28;19927;-68
2023/05/17 00:30:28;;;;;;;;;;;9.50;99.90;;;;;;5131272;28;20026;-68
2023/05/17 00:32:53;;;;;;;;;;;9.50;99.90;;;;;;5132017;28;19973;-68
2023/05/17 00:35:19;;;;;;;;;;;9.40;99.90;;;;;;5097188;28;19923;-70
2023/05/17 00:37:46;;;;;;;;;;;9.30;99.90;;;;;;5114206;28;20364;-70
2023/05/17 00:40:12;;;;;;;;;;;9.30;99.90;;;;;;5131265;28;19943;-70
2023/05/17 00:42:38;;;;;;;;;;;9.30;99.90;;;;;;5148267;27;19972;-69
2023/05/17 00:45:04;;;;;;;;;;;9.30;99.90;;;;;;5131988;28;19924;-70
2023/05/17 00:47:30;;;;;;;;;;;9.30;99.90;;;;;;5131337;28;19933;-70
2023/05/17 00:49:55;;;;;;;;;;;9.30;99.90;;;;;;5134526;27;19924;-70
2023/05/17 00:52:21;;;;;;;;;;;9.20;99.90;;;;;;5134836;27;19924;-71
2023/05/17 00:54:47;;;;;;;;;;;9.30;99.90;;;;;;5134780;27;19923;-70
2023/05/17 00:57:13;;;;;;;;;;;9.30;99.90;;;;;;5134147;27;19924;-70
2023/05/17 00:59:39;;;;;;;;;;;9.30;99.90;;;;;;5134257;27;19934;-70
2023/05/17 01:02:05;;;;;;;;;;;9.30;99.90;;;;;;5134001;27;19930;-71
2023/05/17 01:04:31;;;;;;;;;;;9.30;99.90;;;;;;5151539;27;19924;-70
2023/05/17 01:06:57;;;;;;;;;;;9.40;99.90;;;;;;5099207;27;19927;-70
2023/05/17 01:09:22;;;;;;;;;;;9.40;99.90;;;;;;5135356;27;20342;-70
2023/05/17 01:11:51;;;;;;;;;;;9.40;99.90;;;;;;5134160;27;19943;-70
2023/05/17 01:14:36;;;;;;;;;;;9.40;99.90;;;;;;5135029;27;19927;-70
2023/05/17 01:17:05;;;;;;;;;;;9.40;99.90;;;;;;5133982;27;20370;-70
2023/05/17 01:19:40;;;;;;;;;;;9.40;99.90;;;;;;5135283;27;19930;-70
2023/05/17 01:22:14;;;;;;;;;;;9.40;99.90;;;;;;5116924;27;19923;-70
2023/05/17 01:25:00;;;;;;;;;;;9.40;99.90;;;;;;5134181;27;19923;-70
2023/05/17 01:27:26;;;;;;;;;;;9.40;99.90;;;;;;5135282;27;19924;-69
2023/05/17 01:29:53;;;;;;;;;;;9.30;99.90;;;;;;5116773;27;19991;-70
2023/05/17 01:32:19;;;;;;;;;;;9.30;99.90;;;;;;5134598;27;19930;-70
2023/05/17 01:34:45;;;;;;;;;;;9.30;99.90;;;;;;5135039;27;20430;-69
2023/05/17 01:37:11;;;;;;;;;;;9.30;99.90;;;;;;5116540;27;19976;-69
2023/05/17 01:39:36;;;;;;;;;;;9.30;99.90;;;;;;5134996;27;20291;-69
2023/05/17 01:42:06;;;;;;;;;;;9.30;99.90;;;;;;5134414;27;19927;-69
2023/05/17 01:44:34;;;;;;;;;;;9.40;99.90;;;;;;5133199;27;20347;-69
2023/05/17 01:47:05;;;;;;;;;;;9.30;99.90;;;;;;5133383;27;19924;-69
2023/05/17 01:49:34;;;;;;;;;;;9.30;99.90;;;;;;5133484;27;19924;-69
2023/05/17 01:52:08;;;;;;;;;;;9.30;99.90;;;;;;5133389;27;19924;-69
2023/05/17 01:54:38;;;;;;;;;;;9.20;99.90;;;;;;5134436;27;19992;-70
2023/05/17 01:57:05;;;;;;;;;;;9.20;99.90;;;;;;5133316;27;19923;-70
2023/05/17 01:59:32;;;;;;;;;;;9.10;99.90;;;;;;5132840;27;19923;-69
2023/05/17 02:02:05;;;;;;;;;;;9.10;99.90;;;;;;5134372;27;19927;-72
2023/05/17 02:04:31;;;;;;;;;;;9.00;99.90;;;;;;5133543;27;19923;-69
2023/05/17 02:06:56;;;;;;;;;;;9.00;99.90;;;;;;5150195;27;19950;-69
2023/05/17 02:09:22;;;;;;;;;;;8.90;99.90;;;;;;5132671;27;19927;-69
2023/05/17 02:11:48;;;;;;;;;;;8.90;99.90;;;;;;5132593;27;19923;-69
2023/05/17 02:14:13;;;;;;;;;;;8.90;99.90;;;;;;5132747;27;19974;-69
2023/05/17 02:16:39;;;;;;;;;;;8.80;99.90;;;;;;5134175;27;20381;-69
2023/05/17 02:19:06;;;;;;;;;;;8.80;99.90;;;;;;5115566;27;19923;-69
2023/05/17 02:21:31;;;;;;;;;;;8.80;99.90;;;;;;5133025;27;19928;-69
2023/05/17 02:23:57;;;;;;;;;;;8.80;99.90;;;;;;5134418;27;20345;-69
2023/05/17 02:26:22;;;;;;;;;;;8.80;99.90;;;;;;5131844;27;19923;-69
2023/05/17 02:28:48;;;;;;;;;;;8.80;99.90;;;;;;5115838;27;19923;-69
2023/05/17 02:31:14;;;;;;;;;;;8.80;99.90;;;;;;5132110;27;19972;-69
2023/05/17 02:33:39;;;;;;;;;;;8.80;99.90;;;;;;5133684;27;19930;-69
2023/05/17 02:36:05;;;;;;;;;;;8.80;99.90;;;;;;5132408;27;20311;-69
2023/05/17 02:38:31;;;;;;;;;;;8.80;99.90;;;;;;5115778;27;20018;-69
2023/05/17 02:40:57;;;;;;;;;;;8.80;99.90;;;;;;5132266;27;20015;-69
2023/05/17 02:43:22;;;;;;;;;;;8.80;99.90;;;;;;5131884;27;19980;-69
2023/05/17 02:45:48;;;;;;;;;;;8.80;99.90;;;;;;5132056;27;19930;-68
2023/05/17 02:48:13;;;;;;;;;;;8.80;99.90;;;;;;5131919;27;19923;-69
2023/05/17 02:50:39;;;;;;;;;;;8.70;99.90;;;;;;5132455;27;19927;-69
2023/05/17 02:53:04;;;;;;;;;;;8.80;99.90;;;;;;5132207;27;20367;-72
2023/05/17 02:55:30;;;;;;;;;;;8.70;99.90;;;;;;5133043;27;19923;-69
2023/05/17 02:57:55;;;;;;;;;;;8.80;99.90;;;;;;5098165;27;19966;-69
2023/05/17 03:00:21;;;;;;;;;;;8.70;99.90;;;;;;5131947;27;19923;-69
2023/05/17 03:02:46;;;;;;;;;;;8.70;99.90;;;;;;5114725;27;19924;-70
2023/05/17 03:05:12;;;;;;;;;;;8.70;99.90;;;;;;5131682;27;19928;-69
2023/05/17 03:07:38;;;;;;;;;;;8.70;99.90;;;;;;5132185;27;20276;-69
2023/05/17 03:10:03;;;;;;;;;;;8.70;99.90;;;;;;5114715;27;19923;-69
2023/05/17 03:12:29;;;;;;;;;;;8.60;99.90;;;;;;5132204;27;19977;-70
2023/05/17 03:14:54;;;;;;;;;;;8.60;99.90;;;;;;5131665;27;19923;-69
2023/05/17 03:17:20;;;;;;;;;;;8.60;99.90;;;;;;5132727;27;19930;-68
2023/05/17 03:19:46;;;;;;;;;;;8.60;99.90;;;;;;5114830;27;19935;-68
2023/05/17 03:22:11;;;;;;;;;;;8.60;99.90;;;;;;5114144;27;19923;-68
2023/05/17 03:24:37;;;;;;;;;;;8.60;99.90;;;;;;5131235;27;19931;-69
2023/05/17 03:27:03;;;;;;;;;;;8.60;99.90;;;;;;5132459;27;19923;-69
2023/05/17 03:29:29;;;;;;;;;;;8.60;99.90;;;;;;5131480;27;19969;-68
2023/05/17 03:31:54;;;;;;;;;;;8.60;99.90;;;;;;5131703;27;19923;-68
2023/05/17 03:34:20;;;;;;;;;;;8.60;99.90;;;;;;5113882;28;19928;-69
2023/05/17 03:36:46;;;;;;;;;;;8.50;99.90;;;;;;5131072;28;20034;-69
2023/05/17 03:39:11;;;;;;;;;;;8.60;99.90;;;;;;5132215;28;19927;-69
2023/05/17 03:41:37;;;;;;;;;;;8.70;99.90;;;;;;5114470;28;20455;-69
2023/05/17 03:44:02;;;;;;;;;;;8.70;99.90;;;;;;5131188;28;19930;-69
2023/05/17 03:46:28;;;;;;;;;;;8.70;99.90;;;;;;5096785;28;19924;-70
2023/05/17 03:48:53;;;;;;;;;;;8.90;99.90;;;;;;5132841;28;19924;-68
2023/05/17 03:51:19;;;;;;;;;;;8.70;99.90;;;;;;5131252;28;19930;-68
2023/05/17 03:53:45;;;;;;;;;;;8.70;99.90;;;;;;5114524;28;20365;-68
2023/05/17 03:56:10;;;;;;;;;;;8.70;99.90;;;;;;5132189;27;20326;-70
2023/05/17 03:58:36;;;;;;;;;;;8.70;99.90;;;;;;5131243;28;19967;-70
2023/05/17 04:01:02;;;;;;;;;;;8.60;99.90;;;;;;5131803;28;19924;-69
2023/05/17 04:03:28;;;;;;;;;;;8.60;99.90;;;;;;5148345;27;20001;-69
2023/05/17 04:05:59;;;;;;;;;;;8.60;99.90;;;;;;5131319;28;19971;-69
2023/05/17 04:08:24;;;;;;;;;;;8.60;99.90;;;;;;5132203;27;20010;-70
2023/05/17 04:10:50;;;;;;;;;;;8.60;99.90;;;;;;5114400;28;20305;-69
2023/05/17 04:13:16;;;;;;;;;;;8.50;99.90;;;;;;5130752;28;19992;-69
2023/05/17 04:15:41;;;;;;;;;;;8.60;99.90;;;;;;5114075;28;19930;-69
2023/05/17 04:18:07;;;;;;;;;;;8.60;99.90;;;;;;5131347;28;20056;-68
2023/05/17 04:20:32;;;;;;;;;;;8.60;99.90;;;;;;5131271;28;19923;-69
2023/05/17 04:22:58;;;;;;;;;;;8.60;99.90;;;;;;5132395;27;19991;-69
2023/05/17 04:25:24;;;;;;;;;;;8.60;99.90;;;;;;5135470;27;19923;-69
2023/05/17 04:27:50;;;;;;;;;;;8.60;99.90;;;;;;5135357;27;20387;-70
2023/05/17 04:30:15;;;;;;;;;;;8.60;99.90;;;;;;5134636;27;19934;-71
2023/05/17 04:32:42;;;;;;;;;;;8.60;99.90;;;;;;5134924;27;19980;-69
2023/05/17 04:35:08;;;;;;;;;;;8.60;99.90;;;;;;5118118;27;19923;-69
2023/05/17 04:37:33;;;;;;;;;;;8.60;99.90;;;;;;5134643;27;19930;-69
2023/05/17 04:39:59;;;;;;;;;;;8.70;99.90;;;;;;5136398;27;19924;-69
2023/05/17 04:42:25;;;;;;;;;;;8.70;99.90;;;;;;5134626;27;19923;-69
2023/05/17 04:44:50;;;;;;;;;;;8.80;99.90;;;;;;5118034;27;19924;-69
2023/05/17 04:47:16;;;;;;;;;;;8.90;99.90;;;;;;5136033;27;19950;-69
2023/05/17 04:49:42;;;;;;;;;;;8.90;99.90;;;;;;5133923;27;19978;-70
2023/05/17 04:52:08;;;;;;;;;;;8.90;99.90;;;;;;5100420;27;20364;-70
2023/05/17 04:54:33;;;;;;;;;;;9.00;99.90;;;;;;5117274;27;19923;-70
2023/05/17 04:56:59;;;;;;;;;;;8.90;99.90;;;;;;5117508;27;20383;-70
2023/05/17 04:59:24;;;;;;;;;;;9.00;99.90;;;;;;5133744;27;19930;-70
2023/05/17 05:01:50;;;;;;;;;;;9.00;99.90;;;;;;5134161;27;20483;-70
2023/05/17 05:04:15;;;;;;;;;;;9.00;99.90;;;;;;5134129;27;19927;-70
2023/05/17 05:06:41;;;;;;;;;;;9.00;99.90;;;;;;5133944;27;19992;-70
2023/05/17 05:09:07;;;;;;;;;;;9.00;99.90;;;;;;5134288;27;20476;-70
2023/05/17 05:11:32;;;;;;;;;;;9.10;99.90;;;;;;5134615;27;19953;-70
2023/05/17 05:13:58;;;;;;;;;;;9.10;99.90;;;;;;5117411;27;19923;-70
2023/05/17 05:16:23;;;;;;;;;;;9.10;99.90;;;;;;5133948;27;19924;-70
2023/05/17 05:18:49;;;;;;;;;;;9.10;99.90;;;;;;5134396;27;20014;-70
2023/05/17 05:21:15;;;;;;;;;;;9.20;99.90;;;;;;5135306;27;19959;-71
2023/05/17 05:23:40;;;;;;;;;;;9.20;99.90;;;;;;5134869;27;19979;-71
2023/05/17 05:26:06;;;;;;;;;;;9.20;99.90;;;;;;5133596;27;20377;-71
2023/05/17 05:28:31;;;;;;;;;;;9.20;99.90;;;;;;5133772;27;19931;-71
2023/05/17 05:30:58;;;;;;;;;;;9.20;99.90;;;;;;5133932;27;20048;-71
2023/05/17 05:33:23;;;;;;;;;;;9.20;99.90;;;;;;5151563;27;19930;-72
2023/05/17 05:35:49;;;;;;;;;;;9.20;99.90;;;;;;5134786;27;19924;-69
2023/05/17 05:38:15;;;;;;;;;;;9.10;99.90;;;;;;5133961;27;20385;-69
2023/05/17 05:40:41;;;;;;;;;;;9.10;99.90;;;;;;5133715;27;19970;-70
2023/05/17 05:43:06;;;;;;;;;;;9.00;99.90;;;;;;5133926;27;20337;-69
2023/05/17 05:45:32;;;;;;;;;;;9.10;99.90;;;;;;5133347;27;19972;-69
2023/05/17 05:47:58;;;;;;;;;;;9.10;99.90;;;;;;5133663;27;19931;-69
2023/05/17 05:50:23;;;;;;;;;;;9.40;99.90;;;;;;5135013;27;19977;-69
2023/05/17 05:52:49;;;;;;;;;;;9.50;99.90;;;;;;5132932;27;19923;-69
2023/05/17 05:55:14;;;;;;;;;;;9.80;99.90;;;;;;5134764;27;19924;-69
2023/05/17 05:57:40;;;;;;;;;;;10.00;99.90;;;;;;5133307;27;20037;-68
2023/05/17 06:00:06;;;;;;;;;;;10.10;99.90;;;;;;5134870;27;20221;-68
2023/05/17 06:02:32;;;;;;;;;;;10.30;99.90;;;;;;5133238;27;19966;-66
2023/05/17 06:04:57;;;;;;;;;;;10.30;99.90;;;;;;5133004;27;19924;-67
2023/05/17 06:07:23;;;;;;;;;;;10.30;99.90;;;;;;5134124;27;20331;-67
2023/05/17 06:09:48;;;;;;;;;;;10.30;99.90;;;;;;5132796;27;19920;-68
2023/05/17 06:12:15;;;;;;;;;;;10.30;99.90;;;;;;5133224;27;19931;-68
2023/05/17 06:14:40;;;;;;;;;;;10.30;99.90;;;;;;5115835;27;19930;-68
2023/05/17 06:17:06;;;;;;;;;;;10.20;99.90;;;;;;5099017;27;19927;-69
2023/05/17 06:19:32;;;;;;;;;;;10.10;99.90;;;;;;5115388;27;19923;-67
2023/05/17 06:21:57;;;;;;;;;;;10.10;99.90;;;;;;5133103;27;19923;-67
2023/05/17 06:24:23;;;;;;;;;;;10.00;99.90;;;;;;5115973;27;19924;-67
2023/05/17 06:26:48;;;;;;;;;;;9.90;99.90;;;;;;5115084;27;19924;-67
2023/05/17 06:29:14;;;;;;;;;;;9.90;99.90;;;;;;5115853;27;19931;-67
2023/05/17 06:31:40;;;;;;;;;;;9.80;99.90;;;;;;5133622;27;20019;-68
2023/05/17 06:34:05;;;;;;;;;;;9.80;99.90;;;;;;5133042;27;19923;-67
2023/05/17 06:36:31;;;;;;;;;;;9.80;99.90;;;;;;5133842;27;20023;-71
2023/05/17 06:38:56;;;;;;;;;;;9.80;99.90;;;;;;5133656;27;19923;-67
2023/05/17 06:41:22;;;;;;;;;;;9.80;99.90;;;;;;5132728;27;20006;-68
2023/05/17 06:43:48;;;;;;;;;;;9.90;99.90;;;;;;5132523;27;19924;-68
2023/05/17 06:46:13;;;;;;;;;;;10.00;99.90;;;;;;5131975;27;19930;-68
2023/05/17 06:48:39;;;;;;;;;;;10.00;99.90;;;;;;5167235;27;19923;-67
2023/05/17 06:51:04;;;;;;;;;;;10.00;99.90;;;;;;5115633;27;19928;-68
2023/05/17 06:53:30;;;;;;;;;;;10.10;99.90;;;;;;5132630;27;19971;-67
2023/05/17 06:55:56;;;;;;;;;;;10.10;99.90;;;;;;5133166;27;19927;-68
2023/05/17 06:58:21;;;;;;;;;;;10.20;99.90;;;;;;5133704;27;20010;-68
2023/05/17 07:00:47;;;;;;;;;;;10.20;99.90;;;;;;5115143;27;20425;-70
2023/05/17 07:03:12;;;;;;;;;;;10.30;99.90;;;;;;5133198;27;20026;-69
2023/05/17 07:05:38;;;;;;;;;;;10.30;99.90;;;;;;5132994;27;19927;-67
2023/05/17 07:08:03;;;;;;;;;;;10.40;99.90;;;;;;5132474;27;19968;-68
2023/05/17 07:10:29;;;;;;;;;;;10.50;99.90;;;;;;5133474;27;19923;-66
2023/05/17 07:12:54;;;;;;;;;;;10.60;99.90;;;;;;5132078;27;19923;-66
2023/05/17 07:15:20;;;;;;;;;;;10.70;99.90;;;;;;5133296;27;19929;-66
2023/05/17 07:17:46;;;;;;;;;;;10.80;99.90;;;;;;5131618;27;20023;-66
2023/05/17 07:20:11;;;;;;;;;;;10.80;99.90;;;;;;5133322;27;20068;-67
2023/05/17 07:22:37;;;;;;;;;;;10.90;99.90;;;;;;5115043;27;19923;-70
2023/05/17 07:25:03;;;;;;;;;;;10.90;99.90;;;;;;5132144;27;19931;-67
2023/05/17 07:27:29;;;;;;;;;;;10.90;99.90;;;;;;5131447;27;19927;-67
2023/05/17 07:29:55;;;;;;;;;;;10.90;99.90;;;;;;5132757;27;20307;-67
2023/05/17 07:32:20;;;;;;;;;;;11.00;99.90;;;;;;5133087;27;19974;-67
2023/05/17 07:34:46;;;;;;;;;;;11.00;99.90;;;;;;5131490;27;19928;-67
2023/05/17 07:37:11;;;;;;;;;;;11.00;99.90;;;;;;5131879;28;20018;-67
2023/05/17 07:39:37;;;;;;;;;;;11.00;99.90;;;;;;5133010;28;19930;-67
2023/05/17 07:42:02;;;;;;;;;;;11.00;99.90;;;;;;5132600;28;19977;-66
2023/05/17 07:44:28;;;;;;;;;;;11.20;99.90;;;;;;5133024;27;20010;-66
2023/05/17 07:46:54;;;;;;;;;;;11.30;99.90;;;;;;5131216;28;19927;-66
2023/05/17 07:49:19;;;;;;;;;;;11.30;99.90;;;;;;5132912;28;19923;-68
2023/05/17 07:51:45;;;;;;;;;;;11.30;99.90;;;;;;5132183;28;19949;-67
2023/05/17 07:54:20;;;;;;;;;;;11.40;99.90;;;;;;5132917;27;19923;-65
2023/05/17 07:56:46;;;;;;;;;;;11.50;99.90;;;;;;5132720;27;19951;-65
2023/05/17 07:59:11;;;;;;;;;;;11.40;99.90;;;;;;5136490;27;20353;-67
2023/05/17 08:01:37;;;;;;;;;;;11.40;99.90;;;;;;5153477;27;19924;-66
2023/05/17 08:04:03;;;;;;;;;;;11.40;99.90;;;;;;5118571;27;19920;-66
2023/05/17 08:06:28;;;;;;;;;;;11.50;99.90;;;;;;5135730;27;20384;-66
2023/05/17 08:08:54;;;;;;;;;;;11.80;99.90;;;;;;5135356;27;19928;-66
2023/05/17 08:11:20;;;;;;;;;;;12.00;99.90;;;;;;5135752;27;19970;-69
2023/05/17 08:13:45;;;;;;;;;;;12.00;99.90;;;;;;5136311;27;19927;-68
2023/05/17 08:16:11;;;;;;;;;;;12.00;99.90;;;;;;5118491;27;19991;-66
2023/05/17 08:18:37;;;;;;;;;;;12.00;99.90;;;;;;5136646;27;19924;-65
2023/05/17 08:21:03;;;;;;;;;;;12.20;99.90;;;;;;5117211;27;19924;-71
2023/05/17 08:23:29;;;;;;;;;;;12.50;99.90;;;;;;5132661;27;19924;-70
2023/05/17 08:25:55;;;;;;;;;;;12.70;99.90;;;;;;5135090;27;20010;-69
2023/05/17 08:28:21;;;;;;;;;;;12.80;99.90;;;;;;5136016;27;19967;-67
2023/05/17 08:30:46;;;;;;;;;;;12.70;99.40;;;;;;5117727;27;19934;-69
2023/05/17 08:33:12;;;;;;;;;;;12.70;98.90;;;;;;5135604;27;20292;-64
2023/05/17 08:35:37;;;;;;;;;;;12.90;98.70;;;;;;5135544;27;20280;-67
2023/05/17 08:38:03;;;;;;;;;;;13.10;97.80;;;;;;5135859;27;20015;-67
2023/05/17 08:40:28;;;;;;;;;;;13.30;98.20;;;;;;5135273;27;19924;-65
2023/05/17 08:42:54;;;;;;;;;;;13.80;97.30;;;;;;5135929;27;20064;-66
2023/05/17 08:45:21;;;;;;;;;;;14.60;96.30;;;;;;5135901;27;19924;-66
2023/05/17 08:47:47;;;;;;;;;;;15.60;95.80;;;;;;5135777;27;20497;-67
2023/05/17 08:50:13;;;;;;;;;;;15.80;95.50;;;;;;5136122;27;20024;-64
2023/05/17 08:52:43;;;;;;;;;;;15.60;95.50;;;;;;5134906;27;19923;-65
2023/05/17 08:55:09;;;;;;;;;;;15.10;95.60;;;;;;5136092;27;19946;-64
2023/05/17 08:57:38;;;;;;;;;;;14.60;95.80;;;;;;5135791;27;19924;-64
2023/05/17 09:00:11;;;;;;;;;;;14.40;96.60;;;;;;5134958;27;20474;-64
2023/05/17 09:02:37;;;;;;;;;;;14.20;97.40;;;;;;5134849;27;20362;-66
2023/05/17 09:05:04;;;;;;;;;;;14.10;98.50;;;;;;5133056;27;20018;-64
2023/05/17 09:07:29;;;;;;;;;;;14.50;98.30;;;;;;5168571;27;20026;-65
2023/05/17 09:09:55;;;;;;;;;;;14.40;97.20;;;;;;5134399;27;20388;-65
2023/05/17 09:12:21;;;;;;;;;;;14.10;97.20;;;;;;5135385;27;19964;-65
2023/05/17 09:14:47;;;;;;;;;;;13.80;97.50;;;;;;5134238;27;20010;-65
2023/05/17 09:17:13;;;;;;;;;;;13.70;97.60;;;;;;5134384;27;19923;-67
2023/05/17 09:19:44;;;;;;;;;;;13.60;97.10;;;;;;5133880;27;19923;-65
2023/05/17 09:22:11;;;;;;;;;;;13.50;96.90;;;;;;5135275;27;19923;-66
2023/05/17 09:24:38;;;;;;;;;;;13.90;97.10;;;;;;5135390;27;20060;-65
2023/05/17 09:27:04;;;;;;;;;;;14.40;96.00;;;;;;5133347;27;19924;-64
2023/05/17 09:29:34;;;;;;;;;;;14.60;96.30;;;;;;5135549;27;19930;-64
2023/05/17 09:32:12;;;;;;;;;;;14.60;96.30;;;;;;5134066;27;19948;-66
2023/05/17 09:34:42;;;;;;;;;;;14.50;95.70;;;;;;5134074;27;19931;-63
2023/05/17 09:37:18;;;;;;;;;;;14.50;96.00;;;;;;5134888;27;19923;-64
2023/05/17 09:39:44;;;;;;;;;;;14.20;96.30;;;;;;5134252;27;19924;-64
2023/05/17 09:42:10;;;;;;;;;;;14.10;96.70;;;;;;5134932;27;19981;-65
2023/05/17 09:44:46;;;;;;;;;;;14.10;96.60;;;;;;5135283;27;19934;-65
2023/05/17 09:47:20;;;;;;;;;;;13.90;96.10;;;;;;5134500;27;19924;-68
2023/05/17 09:49:46;;;;;;;;;;;13.80;96.10;;;;;;5133594;27;20296;-64
2023/05/17 09:52:15;;;;;;;;;;;13.90;95.90;;;;;;5133828;27;19923;-64
2023/05/17 09:54:41;;;;;;;;;;;13.80;95.80;;;;;;5134042;27;19934;-66
2023/05/17 09:57:09;;;;;;;;;;;14.00;95.70;;;;;;5132155;27;19924;-65
2023/05/17 09:59:35;;;;;;;;;;;14.30;96.10;;;;;;5133983;27;19924;-65
2023/05/17 10:02:03;;;;;;;;;;;14.60;96.00;;;;;;5133154;27;19929;-65
2023/05/17 10:04:29;;;;;;;;;;;14.60;95.30;;;;;;5132864;27;19920;-64
2023/05/17 10:06:55;;;;;;;;;;;14.60;95.70;;;;;;5132785;27;20003;-69
2023/05/17 10:09:21;;;;;;;;;;;14.40;95.90;;;;;;5132514;27;20029;-65
2023/05/17 10:11:47;;;;;;;;;;;14.30;95.20;;;;;;5133406;27;19947;-66
2023/05/17 10:14:17;;;;;;;;;;;14.10;95.60;;;;;;5133676;27;19930;-65
2023/05/17 10:16:44;;;;;;;;;;;14.10;95.70;;;;;;5133953;27;20385;-64
2023/05/17 10:19:12;;;;;;;;;;;13.70;96.10;;;;;;5131895;27;20281;-65
2023/05/17 10:21:39;;;;;;;;;;;13.70;95.80;;;;;;5133406;27;20303;-66
2023/05/17 10:24:05;;;;;;;;;;;13.50;95.60;;;;;;5132544;27;19923;-64
2023/05/17 10:26:31;;;;;;;;;;;13.60;95.40;;;;;;5133636;27;19927;-66
2023/05/17 10:28:59;;;;;;;;;;;13.70;95.70;;;;;;5134374;27;20294;-65
2023/05/17 10:31:26;;;;;;;;;;;13.70;95.00;;;;;;5133936;27;19996;-65
2023/05/17 10:33:52;;;;;;;;;;;13.80;95.40;;;;;;5133638;27;19930;-67
2023/05/17 10:36:18;;;;;;;;;;;13.60;95.50;;;;;;5133858;27;19927;-65
2023/05/17 10:38:44;;;;;;;;;;;13.70;96.20;;;;;;5133352;27;20034;-65
2023/05/17 10:41:11;;;;;;;;;;;13.80;96.60;;;;;;5150307;27;19919;-67
2023/05/17 10:43:39;;;;;;;;;;;14.00;96.70;;;;;;5133423;27;19927;-66
2023/05/17 10:46:10;;;;;;;;;;;14.00;96.50;;;;;;5133548;27;19946;-65
2023/05/17 10:48:36;;;;;;;;;;;14.00;96.40;;;;;;5132899;27;19927;-65
2023/05/17 10:51:09;;;;;;;;;;;14.00;96.90;;;;;;5133018;27;20064;-65
2023/05/17 10:53:55;;;;;;;;;;;13.90;97.10;;;;;;5133524;27;19923;-66
2023/05/17 10:56:22;;;;;;;;;;;13.70;96.30;;;;;;5121064;27;20141;-66
2023/05/17 10:59:07;;;;;;;;;;;13.80;96.30;;;;;;5133682;27;19927;-66
2023/05/17 11:01:55;;;;;;;;;;;13.90;96.30;;;;;;5132660;27;20376;-65
2023/05/17 11:04:25;;;;;;;;;;;14.10;96.40;;;;;;5132894;27;19972;-66
2023/05/17 11:06:54;;;;;;;;;;;14.10;96.30;;;;;;5133179;27;19920;-64
2023/05/17 11:09:23;;;;;;;;;;;14.20;95.80;;;;;;5133317;27;19919;-65
2023/05/17 11:12:04;;;;;;;;;;;13.90;94.50;;;;;;5133503;27;20356;-64
2023/05/17 11:14:45;;;;;;;;;;;13.90;95.30;;;;;;5132233;27;19924;-65
2023/05/17 11:17:14;;;;;;;;;;;13.80;95.20;;;;;;5133292;27;19972;-64
2023/05/17 11:19:52;;;;;;;;;;;13.90;95.60;;;;;;5132530;27;20280;-65
2023/05/17 11:22:21;;;;;;;;;;;13.80;95.40;;;;;;5129516;27;20275;-65
2023/05/17 11:24:49;;;;;;;;;;;13.90;96.10;;;;;;5129180;27;19937;-66
2023/05/17 11:27:17;;;;;;;;;;;14.00;96.10;;;;;;5130748;27;19953;-65
2023/05/17 11:29:46;;;;;;;;;;;14.00;95.30;;;;;;5132429;27;19927;-66
2023/05/17 11:32:12;;;;;;;;;;;14.10;95.60;;;;;;5132581;27;19978;-66
2023/05/17 11:34:38;;;;;;;;;;;14.30;95.30;;;;;;5131654;27;19986;-65
2023/05/17 11:37:04;;;;;;;;;;;14.50;95.80;;;;;;5128990;27;20280;-65
2023/05/17 11:39:30;;;;;;;;;;;14.30;94.60;;;;;;5132283;27;20269;-65
2023/05/17 11:41:56;;;;;;;;;;;14.20;95.60;;;;;;5133083;28;20104;-65
2023/05/17 11:44:28;;;;;;;;;;;14.20;95.80;;;;;;5132608;28;20284;-65
2023/05/17 11:47:00;;;;;;;;;;;14.30;96.30;;;;;;5131295;28;19942;-65
2023/05/17 11:49:26;;;;;;;;;;;14.30;95.30;;;;;;5130249;28;20299;-67
2023/05/17 11:51:52;;;;;;;;;;;14.30;95.00;;;;;;5114698;28;20501;-65
2023/05/17 11:54:20;;;;;;;;;;;14.40;94.40;;;;;;5162392;27;19938;-65
2023/05/17 11:56:46;;;;;;;;;;;14.30;94.80;;;;;;5130672;28;19935;-66
2023/05/17 11:59:17;;;;;;;;;;;14.50;94.30;;;;;;5131470;28;20369;-65
2023/05/17 12:01:44;;;;;;;;;;;14.50;94.60;;;;;;5131876;28;19931;-65
2023/05/17 12:04:10;;;;;;;;;;;14.70;94.80;;;;;;5132449;27;20369;-65
2023/05/17 12:06:36;;;;;;;;;;;14.70;95.10;;;;;;5132699;28;19927;-65
2023/05/17 12:09:03;;;;;;;;;;;14.60;94.30;;;;;;5131431;28;20429;-65
2023/05/17 12:11:29;;;;;;;;;;;14.50;95.10;;;;;;5130658;28;19923;-64
2023/05/17 12:13:55;;;;;;;;;;;14.40;95.00;;;;;;5132053;27;19976;-66
2023/05/17 12:16:21;;;;;;;;;;;14.20;95.20;;;;;;5114208;28;19988;-65
2023/05/17 12:18:48;;;;;;;;;;;14.20;95.40;;;;;;5131662;28;19931;-65
2023/05/17 12:21:14;;;;;;;;;;;14.20;95.50;;;;;;5148644;27;19946;-64
2023/05/17 12:23:47;;;;;;;;;;;14.20;94.40;;;;;;5111996;28;19923;-65
2023/05/17 12:26:16;;;;;;;;;;;14.20;95.00;;;;;;5131077;27;19929;-67
2023/05/17 12:28:43;;;;;;;;;;;14.30;94.60;;;;;;5131739;27;19931;-63
2023/05/17 12:31:13;;;;;;;;;;;14.30;95.20;;;;;;5131662;28;19928;-63
2023/05/17 12:33:40;;;;;;;;;;;14.20;94.90;;;;;;5131292;28;19924;-63
2023/05/17 12:36:06;;;;;;;;;;;14.20;95.20;;;;;;5132606;27;20087;-64
2023/05/17 12:38:32;;;;;;;;;;;14.10;95.00;;;;;;5131204;28;20017;-64
2023/05/17 12:40:59;;;;;;;;;;;14.30;95.30;;;;;;5114314;28;19954;-64
2023/05/17 12:43:25;;;;;;;;;;;14.20;94.80;;;;;;5132158;27;19928;-64
2023/05/17 12:45:55;;;;;;;;;;;14.10;95.30;;;;;;5135030;27;20355;-64
2023/05/17 12:48:25;;;;;;;;;;;14.00;95.30;;;;;;5169134;27;19924;-65
2023/05/17 12:50:51;;;;;;;;;;;14.00;95.20;;;;;;5134505;27;19949;-64
2023/05/17 12:53:16;;;;;;;;;;;14.00;94.80;;;;;;5134351;27;19923;-64
2023/05/17 12:55:42;;;;;;;;;;;14.00;94.80;;;;;;5135328;27;20219;-64
2023/05/17 12:58:07;;;;;;;;;;;14.10;95.30;;;;;;5117751;27;20017;-65
2023/05/17 13:00:33;;;;;;;;;;;14.00;94.30;;;;;;5117594;27;19923;-64
2023/05/17 13:02:58;;;;;;;;;;;13.80;94.50;;;;;;5135861;27;20032;-63
2023/05/17 13:05:24;;;;;;;;;;;13.70;94.60;;;;;;5169041;27;19930;-64
2023/05/17 13:07:50;;;;;;;;;;;13.60;95.80;;;;;;5134497;27;19992;-64
2023/05/17 13:10:33;;;;;;;;;;;13.50;95.70;;;;;;5134406;27;19952;-68
2023/05/17 13:12:59;;;;;;;;;;;13.60;96.10;;;;;;5169171;27;19929;-64
2023/05/17 13:15:26;;;;;;;;;;;13.60;95.80;;;;;;5134159;27;20002;-64
2023/05/17 13:17:52;;;;;;;;;;;13.70;96.00;;;;;;5134647;27;19923;-65
2023/05/17 13:20:18;;;;;;;;;;;13.70;94.90;;;;;;5133819;27;19968;-70
2023/05/17 13:22:47;;;;;;;;;;;13.70;95.70;;;;;;5135356;27;20302;-62
2023/05/17 13:25:12;;;;;;;;;;;13.70;95.50;;;;;;5135329;27;19924;-65
2023/05/17 13:27:43;;;;;;;;;;;13.70;96.00;;;;;;5134327;27;19919;-65
2023/05/17 13:30:12;;;;;;;;;;;13.90;95.90;;;;;;5134176;27;20014;-65
2023/05/17 13:32:38;;;;;;;;;;;14.00;96.00;;;;;;5134800;27;19920;-65
2023/05/17 13:35:04;;;;;;;;;;;13.90;96.00;;;;;;5135312;27;20017;-65
2023/05/17 13:37:30;;;;;;;;;;;13.90;95.60;;;;;;5134911;27;20039;-65
2023/05/17 13:39:56;;;;;;;;;;;13.70;95.10;;;;;;5135144;27;19927;-65
2023/05/17 13:42:22;;;;;;;;;;;13.70;95.60;;;;;;5116749;27;19923;-70
2023/05/17 13:44:47;;;;;;;;;;;13.80;95.80;;;;;;5135071;27;19976;-66
2023/05/17 13:47:13;;;;;;;;;;;13.90;95.30;;;;;;5133785;27;19931;-65
2023/05/17 13:49:39;;;;;;;;;;;13.90;95.40;;;;;;5134554;27;20368;-65
2023/05/17 13:52:08;;;;;;;;;;;13.80;95.20;;;;;;5133862;27;19930;-65
2023/05/17 13:54:34;;;;;;;;;;;13.80;95.80;;;;;;5134558;27;19927;-66
2023/05/17 13:57:00;;;;;;;;;;;13.90;95.50;;;;;;5134059;27;20379;-66
2023/05/17 13:59:25;;;;;;;;;;;13.90;95.80;;;;;;5134434;27;19931;-65
2023/05/17 14:01:51;;;;;;;;;;;13.90;96.00;;;;;;5134844;27;19924;-64
2023/05/17 14:04:17;;;;;;;;;;;13.90;96.10;;;;;;5134833;27;20052;-64
2023/05/17 14:06:42;;;;;;;;;;;14.00;96.00;;;;;;5133028;27;20474;-64
2023/05/17 14:09:08;;;;;;;;;;;14.10;96.20;;;;;;5133252;27;20355;-66
2023/05/17 14:11:34;;;;;;;;;;;14.00;96.30;;;;;;5134463;27;19972;-64
2023/05/17 14:14:00;;;;;;;;;;;14.00;96.10;;;;;;5133512;27;19976;-64
2023/05/17 14:16:26;;;;;;;;;;;14.00;97.00;;;;;;5098839;27;19927;-66
2023/05/17 14:18:51;;;;;;;;;;;14.00;96.70;;;;;;5134653;27;20006;-64
2023/05/17 14:21:17;;;;;;;;;;;13.90;96.80;;;;;;5134644;27;19924;-65